Csl Virginia — 5BEG4 — position and weather

sailwx.info

Track history (hours):
 
Tides and Currents Weather Stations Pressure Air Temp Water Temp Dewpoint Dewpoint Depression Visibility Wind Speed Wind Dir Waves Ship Positions

Csl Virginia

Last reported at 2018-Feb-21 17:14 UTC. Time now 2018-Feb-22 13:16 UTC.
Position N 36°18' W 009°16'.

Length 294 m; draft 12.5 m.

Type: Cargo ship. MMSI: 212416000.

Date/timePositionNaut miles runAvg speedWind from/ knotsBaromVisibWave heightAir tempDewpointWater temp
2018-Feb-21 17:14N 36°18' W 009°16'17717.4
2018-Feb-21 07:02N 35°58' W 005°38'130.7
2018-Feb-21 06:59N 35°58' W 005°36'816.6
2018-Feb-21 06:30N 36°01' W 005°27'816.4
2018-Feb-21 06:00N 36°02' W 005°17'1019.6
2018-Feb-21 05:29N 36°04' W 005°05'1521.0
2018-Feb-21 04:46N 36°08' W 004°46'620.8
2018-Feb-21 04:28N 36°08' W 004°39'19119.5
2018-Feb-20 18:41N 37°18' W 000°57'420.2
2018-Feb-20 18:29N 37°21' W 000°53'1020.2
2018-Feb-20 18:00N 37°28' W 000°44'1019.9
2018-Feb-20 17:30N 37°35' W 000°35'1019.1
2018-Feb-20 17:00N 37°42' W 000°28'918.8
2018-Feb-20 16:30N 37°50' W 000°21'1019.3
2018-Feb-20 16:00N 37°57' W 000°13'8915.1
2018-Feb-20 10:06N 39°26' W 000°19'0 3.6
2018-Feb-20 10:01N 39°26' W 000°19'0 0.2
2018-Feb-20 08:45N 39°26' W 000°19'0 0.0
2018-Feb-20 08:21N 39°26' W 000°19'0 0.0
2018-Feb-20 07:45N 39°26' W 000°19'0 0.0
2018-Feb-20 07:27N 39°26' W 000°19'0 0.0
2018-Feb-20 06:57N 39°26' W 000°19'0 0.0
2018-Feb-20 06:30N 39°26' W 000°19'0 0.0
2018-Feb-20 05:51N 39°26' W 000°19'0 0.0
2018-Feb-20 05:27N 39°26' W 000°19'0 0.0
2018-Feb-20 04:57N 39°26' W 000°19'0 0.0
2018-Feb-20 04:30N 39°26' W 000°19'0 0.0
2018-Feb-20 03:39N 39°26' W 000°19'0 0.0
2018-Feb-20 03:30N 39°26' W 000°19'0 0.0
2018-Feb-20 02:57N 39°26' W 000°19'0 0.0
2018-Feb-20 02:30N 39°26' W 000°19'0 0.0
2018-Feb-20 01:57N 39°26' W 000°19'0 0.0
2018-Feb-20 01:27N 39°26' W 000°19'0 0.0
2018-Feb-20 01:00N 39°26' W 000°19'0 0.0
2018-Feb-20 00:27N 39°26' W 000°19'0 0.0
2018-Feb-19 23:57N 39°26' W 000°19'0 0.0
2018-Feb-19 22:54N 39°26' W 000°19'0 0.0
2018-Feb-19 22:30N 39°26' W 000°19'0 0.0
2018-Feb-19 21:57N 39°26' W 000°19'0 0.0
2018-Feb-19 21:15N 39°26' W 000°19'0 0.0
2018-Feb-19 20:57N 39°26' W 000°19'0 0.0
2018-Feb-19 20:21N 39°26' W 000°19'0 0.0
2018-Feb-19 19:48N 39°26' W 000°19'0 0.0
2018-Feb-19 19:09N 39°26' W 000°19'0 0.0
2018-Feb-19 18:39N 39°26' W 000°19'0 0.1
2018-Feb-19 18:27N 39°26' W 000°19'0 0.0
2018-Feb-19 18:00N 39°26' W 000°19'0 0.0
2018-Feb-19 17:30N 39°26' W 000°19'0 0.0
2018-Feb-19 16:57N 39°26' W 000°19'0 0.0
2018-Feb-19 16:27N 39°26' W 000°19'0 0.0
2018-Feb-19 16:00N 39°26' W 000°19'1 1.1
2018-Feb-19 15:30N 39°26' W 000°19'3 5.6
2018-Feb-19 15:00N 39°26' W 000°15'612.6
2018-Feb-19 14:30N 39°29' W 000°08'12320.5
2018-Feb-19 08:31N 40°55' E 001°48'219.6
2018-Feb-19 08:25N 40°56' E 001°49'819.8
2018-Feb-19 08:00N 41°03' E 001°56'1019.8
2018-Feb-19 07:30N 41°10' E 002°04'12 2.1
2018-Feb-19 01:51N 41°21' E 002°10'0 0.0
2018-Feb-19 01:30N 41°21' E 002°10'0 0.0
2018-Feb-19 01:00N 41°21' E 002°10'0 0.0
2018-Feb-19 00:30N 41°21' E 002°10'0 0.0
2018-Feb-19 00:00N 41°21' E 002°10'0 0.0
2018-Feb-18 23:30N 41°21' E 002°10'0 0.0
2018-Feb-18 23:00N 41°21' E 002°10'0 0.0
2018-Feb-18 22:30N 41°21' E 002°10'0 0.0
2018-Feb-18 22:00N 41°21' E 002°10'1 2.2
2018-Feb-18 21:30N 41°20' E 002°10'3 6.7
2018-Feb-18 21:00N 41°17' E 002°12'0 1.0
2018-Feb-18 20:30N 41°16' E 002°12'2 4.9
2018-Feb-18 20:00N 41°17' E 002°16'713.5
2018-Feb-18 19:31N 41°20' E 002°24'1120.7
2018-Feb-18 18:59N 41°25' E 002°36'13820.5
2018-Feb-18 12:15N 43°02' E 004°48'521.3
2018-Feb-18 12:00N 43°06' E 004°53'1019.7
2018-Feb-18 11:30N 43°15' E 004°60'715.1
2018-Feb-18 11:01N 43°22' E 004°58'611.1
2018-Feb-18 10:31N 43°25' E 004°51'0 0.2
2018-Feb-18 09:55N 43°25' E 004°51'0 0.0
2018-Feb-18 09:28N 43°25' E 004°51'0 0.0
2018-Feb-18 08:55N 43°25' E 004°51'0 0.0
2018-Feb-18 08:29N 43°25' E 004°51'0 0.0
2018-Feb-18 07:59N 43°25' E 004°51'0 0.0
2018-Feb-18 07:29N 43°25' E 004°51'0 0.0
2018-Feb-18 06:59N 43°25' E 004°51'0 0.0
2018-Feb-18 06:29N 43°25' E 004°51'0 0.0
2018-Feb-18 05:59N 43°25' E 004°51'0 0.0
2018-Feb-18 05:29N 43°25' E 004°51'0 0.0
2018-Feb-18 04:59N 43°25' E 004°51'0 0.0
2018-Feb-18 04:29N 43°25' E 004°51'0 0.0
2018-Feb-18 03:59N 43°25' E 004°51'0 0.0
2018-Feb-18 03:29N 43°25' E 004°51'0 0.0
2018-Feb-18 02:59N 43°25' E 004°51'0 0.0
2018-Feb-18 02:29N 43°25' E 004°51'0 0.0
2018-Feb-18 01:59N 43°25' E 004°51'0 0.0
2018-Feb-18 01:29N 43°25' E 004°51'0 0.0
2018-Feb-18 00:59N 43°25' E 004°51'0 0.0
2018-Feb-18 00:29N 43°25' E 004°51'0 0.0
2018-Feb-17 23:59N 43°25' E 004°51'0 0.0
2018-Feb-17 23:17N 43°25' E 004°51'0 0.0
2018-Feb-17 22:56N 43°25' E 004°51'0 0.0
2018-Feb-17 22:29N 43°25' E 004°51'0 0.0
2018-Feb-17 21:59N 43°25' E 004°51'0 0.0
2018-Feb-17 21:26N 43°25' E 004°51'0 0.0
2018-Feb-17 20:59N 43°25' E 004°51'0 0.0
2018-Feb-17 20:29N 43°25' E 004°51'0 0.0
2018-Feb-17 19:59N 43°25' E 004°51'0 0.0
2018-Feb-17 19:29N 43°25' E 004°51'0 0.0
2018-Feb-17 18:59N 43°25' E 004°51'0 0.0
2018-Feb-17 18:29N 43°25' E 004°51'0 0.0
2018-Feb-17 17:59N 43°25' E 004°51'0 0.0
2018-Feb-17 17:29N 43°25' E 004°51'0 0.0
2018-Feb-17 16:59N 43°25' E 004°51'0 0.0
2018-Feb-17 16:29N 43°25' E 004°51'0 0.0
2018-Feb-17 15:59N 43°25' E 004°51'0 0.0
2018-Feb-17 15:29N 43°25' E 004°51'0 0.5
2018-Feb-17 15:00N 43°25' E 004°51'4 7.1
2018-Feb-17 14:30N 43°24' E 004°56'5 9.2
2018-Feb-17 14:01N 43°20' E 004°59'612.7
2018-Feb-17 13:30N 43°14' E 005°02'815.2
2018-Feb-17 13:01N 43°08' E 004°54'1020.4
2018-Feb-17 12:31N 43°07' E 004°41'1 2.1
2018-Feb-17 11:59N 43°07' E 004°39'0 0.2
2018-Feb-17 11:30N 43°07' E 004°39'0 0.3
2018-Feb-17 10:42N 43°07' E 004°39'0 0.1
2018-Feb-17 10:21N 43°07' E 004°39'0 0.1
2018-Feb-17 10:00N 43°07' E 004°39'0 0.1
2018-Feb-17 09:27N 43°07' E 004°39'0 0.0
2018-Feb-17 09:00N 43°07' E 004°39'0 0.0
2018-Feb-17 08:30N 43°07' E 004°39'0 0.1
2018-Feb-17 08:00N 43°07' E 004°39'0 0.0
2018-Feb-17 07:30N 43°07' E 004°39'0 0.0
2018-Feb-17 07:00N 43°07' E 004°39'0 0.0
2018-Feb-17 06:30N 43°07' E 004°39'0 0.0
2018-Feb-17 06:00N 43°07' E 004°39'0 0.0
2018-Feb-17 05:30N 43°07' E 004°39'0 0.0
2018-Feb-17 05:00N 43°07' E 004°39'0 0.0
2018-Feb-17 04:30N 43°07' E 004°39'0 0.1
2018-Feb-17 04:00N 43°07' E 004°39'0 0.0
2018-Feb-17 03:30N 43°07' E 004°39'0 0.0
2018-Feb-17 03:00N 43°07' E 004°39'0 0.0
2018-Feb-17 02:30N 43°07' E 004°39'0 0.0
2018-Feb-17 02:00N 43°07' E 004°39'0 0.0
2018-Feb-17 01:30N 43°07' E 004°39'0 0.0
2018-Feb-17 01:00N 43°07' E 004°39'0 0.0
2018-Feb-17 00:30N 43°07' E 004°39'0 0.0
2018-Feb-17 00:00N 43°07' E 004°39'0 0.0
2018-Feb-16 23:30N 43°07' E 004°39'0 0.0
2018-Feb-16 23:00N 43°07' E 004°39'0 0.0
2018-Feb-16 22:30N 43°07' E 004°39'0 0.0
2018-Feb-16 22:00N 43°07' E 004°39'0 0.0
2018-Feb-16 21:30N 43°07' E 004°39'0 0.0
2018-Feb-16 21:00N 43°07' E 004°39'0 0.0
2018-Feb-16 20:30N 43°07' E 004°39'0 0.0
2018-Feb-16 20:00N 43°07' E 004°39'0 0.0
2018-Feb-16 19:30N 43°07' E 004°39'0 0.0
2018-Feb-16 19:00N 43°07' E 004°39'0 0.1
2018-Feb-16 18:30N 43°07' E 004°39'0 0.0
2018-Feb-16 18:00N 43°07' E 004°39'0 0.0
2018-Feb-16 17:30N 43°07' E 004°39'0 0.0
2018-Feb-16 17:00N 43°07' E 004°39'0 0.0
2018-Feb-16 16:21N 43°07' E 004°39'0 0.0
2018-Feb-16 16:00N 43°07' E 004°39'0 0.0
2018-Feb-16 15:30N 43°07' E 004°39'0 0.0
2018-Feb-16 15:00N 43°07' E 004°39'0 0.1
2018-Feb-16 14:30N 43°07' E 004°39'0 0.0
2018-Feb-16 14:00N 43°07' E 004°39'0 0.0
2018-Feb-16 13:30N 43°07' E 004°39'0 0.0
2018-Feb-16 13:00N 43°07' E 004°39'0 0.0
2018-Feb-16 12:30N 43°07' E 004°39'0 0.2
2018-Feb-16 11:48N 43°07' E 004°39'0 0.5
2018-Feb-16 11:30N 43°07' E 004°39'2 4.4
2018-Feb-16 11:00N 43°06' E 004°42'612.3
2018-Feb-16 10:30N 43°04' E 004°50'9710.7
2018-Feb-16 01:26N 43°06' E 007°03'511.4
2018-Feb-16 01:01N 43°08' E 007°08'610.8
2018-Feb-16 00:29N 43°12' E 007°15'510.3
2018-Feb-16 00:00N 43°15' E 007°20'510.6
2018-Feb-15 23:31N 43°18' E 007°26'610.9
2018-Feb-15 22:55N 43°22' E 007°32'611.2
2018-Feb-15 22:24N 43°26' E 007°38'511.7
2018-Feb-15 21:58N 43°29' E 007°43'3411.5
2018-Feb-15 19:03N 43°50' E 008°20'211.3
2018-Feb-15 18:55N 43°52' E 008°21'511.2
2018-Feb-15 18:30N 43°55' E 008°25'511.0
2018-Feb-15 18:01N 43°60' E 008°29'510.9
2018-Feb-15 17:31N 44°04' E 008°33'611.2
2018-Feb-15 17:00N 44°09' E 008°37'511.1
2018-Feb-15 16:30N 44°14' E 008°39'611.7
2018-Feb-15 16:00N 44°20' E 008°41'612.5
2018-Feb-15 15:30N 44°25' E 008°46'1 1.2
2018-Feb-15 14:59N 44°25' E 008°47'0 0.0
2018-Feb-15 14:29N 44°25' E 008°47'0 0.0
2018-Feb-15 13:59N 44°25' E 008°47'0 0.0
2018-Feb-15 13:29N 44°25' E 008°47'0 0.0
2018-Feb-15 12:59N 44°25' E 008°47'0 0.0
2018-Feb-15 12:26N 44°25' E 008°47'0 0.0
2018-Feb-15 11:59N 44°25' E 008°47'0 0.0
2018-Feb-15 11:26N 44°25' E 008°47'0 0.0
2018-Feb-15 10:59N 44°25' E 008°47'0 0.0
2018-Feb-15 10:29N 44°25' E 008°47'0 0.0
2018-Feb-15 09:59N 44°25' E 008°47'0 0.0
2018-Feb-15 09:29N 44°25' E 008°47'0 0.0
2018-Feb-15 08:56N 44°25' E 008°47'0 0.0
2018-Feb-15 08:29N 44°25' E 008°47'0 0.0
2018-Feb-15 07:59N 44°25' E 008°47'0 0.0
2018-Feb-15 07:29N 44°25' E 008°47'0 0.0
2018-Feb-15 06:59N 44°25' E 008°47'0 0.0
2018-Feb-15 06:29N 44°25' E 008°47'0 0.0
2018-Feb-15 05:59N 44°25' E 008°47'0 0.0
2018-Feb-15 05:26N 44°25' E 008°47'0 0.0
2018-Feb-15 04:59N 44°25' E 008°47'0 0.0
2018-Feb-15 04:29N 44°25' E 008°47'0 0.0
2018-Feb-15 03:59N 44°25' E 008°47'0 0.0
2018-Feb-15 03:29N 44°25' E 008°47'0 0.0
2018-Feb-15 02:59N 44°25' E 008°47'0 0.0
2018-Feb-15 02:29N 44°25' E 008°47'0 0.0
2018-Feb-15 01:59N 44°25' E 008°47'0 0.0
2018-Feb-15 01:29N 44°25' E 008°47'0 0.0
2018-Feb-15 00:59N 44°25' E 008°47'0 0.0
2018-Feb-15 00:29N 44°25' E 008°47'0 0.0
2018-Feb-14 23:59N 44°25' E 008°47'0 0.0
2018-Feb-14 23:29N 44°25' E 008°47'0 0.0
2018-Feb-14 22:59N 44°25' E 008°47'0 0.0
2018-Feb-14 22:29N 44°25' E 008°47'0 0.0
2018-Feb-14 21:59N 44°25' E 008°47'0 0.0
2018-Feb-14 21:29N 44°25' E 008°47'0 0.0
2018-Feb-14 20:56N 44°25' E 008°47'0 0.0
2018-Feb-14 20:29N 44°25' E 008°47'0 0.0
2018-Feb-14 19:59N 44°25' E 008°47'0 0.0
2018-Feb-14 19:29N 44°25' E 008°47'0 0.0
2018-Feb-14 18:56N 44°25' E 008°47'0 0.0
2018-Feb-14 18:29N 44°25' E 008°47'0 0.0
2018-Feb-14 17:59N 44°25' E 008°47'0 0.0
2018-Feb-14 17:29N 44°25' E 008°47'0 0.0
2018-Feb-14 16:59N 44°25' E 008°47'1 1.3
2018-Feb-14 16:30N 44°25' E 008°46'3 5.3
2018-Feb-14 16:00N 44°23' E 008°44'1 2.7
2018-Feb-14 15:30N 44°24' E 008°46'0 0.3
2018-Feb-14 15:00N 44°23' E 008°46'0 0.0
2018-Feb-14 14:30N 44°23' E 008°46'0 0.0
2018-Feb-14 14:00N 44°23' E 008°46'0 0.0
2018-Feb-14 13:30N 44°23' E 008°46'0 0.1
2018-Feb-14 13:00N 44°23' E 008°46'0 0.0
2018-Feb-14 12:30N 44°23' E 008°46'0 0.0
2018-Feb-14 12:00N 44°23' E 008°46'0 0.1
2018-Feb-14 11:30N 44°23' E 008°46'0 0.1
2018-Feb-14 11:00N 44°23' E 008°46'0 0.0
2018-Feb-14 10:30N 44°23' E 008°46'0 0.1
2018-Feb-14 10:00N 44°23' E 008°46'0 0.1
2018-Feb-14 09:30N 44°23' E 008°46'0 0.1
2018-Feb-14 09:00N 44°23' E 008°46'0 0.0
2018-Feb-14 08:30N 44°23' E 008°46'0 0.1
2018-Feb-14 08:00N 44°23' E 008°46'0 0.0
2018-Feb-14 07:27N 44°23' E 008°46'0 0.1
2018-Feb-14 07:00N 44°23' E 008°46'0 0.0
2018-Feb-14 06:30N 44°23' E 008°46'0 0.0
2018-Feb-14 06:00N 44°23' E 008°46'0 0.1
2018-Feb-14 05:24N 44°23' E 008°46'0 0.0
2018-Feb-14 04:51N 44°23' E 008°46'0 0.0
2018-Feb-14 04:30N 44°23' E 008°46'0 0.0
2018-Feb-14 03:57N 44°23' E 008°46'0 0.1
2018-Feb-14 03:30N 44°23' E 008°46'0 0.0
2018-Feb-14 03:00N 44°23' E 008°46'0 0.0
2018-Feb-14 02:30N 44°23' E 008°46'0 0.0
2018-Feb-14 02:00N 44°23' E 008°46'0 0.0
2018-Feb-14 01:30N 44°23' E 008°46'0 0.0
2018-Feb-14 01:00N 44°23' E 008°46'0 0.0
2018-Feb-14 00:30N 44°23' E 008°46'0 0.3
2018-Feb-14 00:00N 44°24' E 008°46'0 0.5
2018-Feb-13 23:30N 44°24' E 008°46'0 0.1
2018-Feb-13 23:00N 44°24' E 008°46'0 0.2
2018-Feb-13 22:30N 44°24' E 008°46'0 0.2
2018-Feb-13 22:00N 44°24' E 008°46'0 0.3
2018-Feb-13 21:30N 44°24' E 008°46'0 0.2
2018-Feb-13 21:00N 44°24' E 008°46'0 0.0
2018-Feb-13 20:30N 44°24' E 008°46'0 0.1
2018-Feb-13 20:00N 44°24' E 008°46'0 0.3
2018-Feb-13 19:30N 44°24' E 008°46'0 0.1
2018-Feb-13 19:00N 44°24' E 008°46'0 0.8
2018-Feb-13 18:30N 44°23' E 008°46'0 0.0
2018-Feb-13 18:00N 44°23' E 008°46'0 0.1
2018-Feb-13 17:30N 44°23' E 008°46'0 0.1
2018-Feb-13 17:00N 44°23' E 008°46'0 0.0
2018-Feb-13 16:27N 44°23' E 008°46'0 0.0
2018-Feb-13 16:00N 44°23' E 008°46'0 0.1
2018-Feb-13 15:30N 44°23' E 008°46'0 0.0
2018-Feb-13 15:00N 44°23' E 008°46'0 0.1
2018-Feb-13 14:30N 44°23' E 008°46'0 0.1
2018-Feb-13 14:00N 44°23' E 008°46'0 0.1
2018-Feb-13 13:30N 44°23' E 008°46'0 0.0
2018-Feb-13 12:57N 44°23' E 008°46'0 0.0
2018-Feb-13 12:30N 44°23' E 008°46'0 0.0
2018-Feb-13 12:00N 44°23' E 008°46'0 0.0
2018-Feb-13 11:30N 44°23' E 008°46'0 0.0
2018-Feb-13 10:57N 44°23' E 008°46'0 0.0
2018-Feb-13 10:30N 44°23' E 008°46'0 0.0
2018-Feb-13 10:00N 44°23' E 008°46'0 0.0
2018-Feb-13 09:30N 44°23' E 008°46'0 0.0
2018-Feb-13 09:00N 44°23' E 008°46'0 0.0
2018-Feb-13 08:30N 44°23' E 008°46'0 0.0
2018-Feb-13 08:00N 44°23' E 008°46'0 0.1
2018-Feb-13 07:30N 44°23' E 008°46'0 0.1
2018-Feb-13 07:00N 44°23' E 008°46'0 0.0
2018-Feb-13 06:30N 44°23' E 008°46'0 0.1
2018-Feb-13 06:00N 44°23' E 008°46'0 0.0
2018-Feb-13 05:30N 44°23' E 008°46'0 0.1
2018-Feb-13 05:00N 44°23' E 008°46'0 0.0
2018-Feb-13 04:30N 44°23' E 008°46'0 0.1
2018-Feb-13 04:00N 44°23' E 008°46'0 0.1
2018-Feb-13 03:30N 44°23' E 008°46'0 0.0
2018-Feb-13 03:00N 44°23' E 008°46'0 0.1
2018-Feb-13 02:28N 44°23' E 008°46'0 1.0
2018-Feb-13 02:00N 44°23' E 008°46'4 7.6
2018-Feb-13 01:30N 44°19' E 008°45'3 6.5
2018-Feb-13 01:00N 44°17' E 008°48'815.9
2018-Feb-13 00:30N 44°11' E 008°55'816.3
2018-Feb-13 00:01N 44°05' E 009°02'816.8
2018-Feb-12 23:31N 43°58' E 009°10'816.8
2018-Feb-12 23:01N 43°53' E 009°19'816.5
2018-Feb-12 22:31N 43°48' E 009°28'816.1
2018-Feb-12 22:00N 43°43' E 009°36'816.0
2018-Feb-12 21:30N 43°38' E 009°45'815.6
2018-Feb-12 21:01N 43°33' E 009°54'816.9
2018-Feb-12 20:31N 43°30' E 010°05'817.0
2018-Feb-12 20:01N 43°32' E 010°16'3 5.4
2018-Feb-12 19:30N 43°34' E 010°18'0 0.7
2018-Feb-12 18:59N 43°34' E 010°18'0 0.0
2018-Feb-12 18:29N 43°34' E 010°18'0 0.0
2018-Feb-12 17:59N 43°34' E 010°18'0 0.0
2018-Feb-12 17:29N 43°34' E 010°18'0 0.0
2018-Feb-12 16:59N 43°34' E 010°18'0 0.0
2018-Feb-12 16:29N 43°34' E 010°18'0 0.0
2018-Feb-12 15:59N 43°34' E 010°18'0 0.0
2018-Feb-12 15:17N 43°34' E 010°18'0 0.0
2018-Feb-12 14:59N 43°34' E 010°18'0 0.0
2018-Feb-12 14:29N 43°34' E 010°18'0 0.0
2018-Feb-12 13:59N 43°34' E 010°18'0 0.0
2018-Feb-12 13:23N 43°34' E 010°18'0 0.0
2018-Feb-12 12:59N 43°34' E 010°18'0 0.0
2018-Feb-12 12:23N 43°34' E 010°18'0 0.0
2018-Feb-12 11:59N 43°34' E 010°18'0 0.0
2018-Feb-12 11:26N 43°34' E 010°18'0 0.0
2018-Feb-12 10:56N 43°34' E 010°18'0 0.0
2018-Feb-12 10:29N 43°34' E 010°18'0 0.0
2018-Feb-12 09:59N 43°34' E 010°18'0 0.0
2018-Feb-12 09:29N 43°34' E 010°18'0 0.0
2018-Feb-12 08:59N 43°34' E 010°18'0 0.0
2018-Feb-12 08:26N 43°34' E 010°18'0 0.0
2018-Feb-12 07:59N 43°34' E 010°18'0 0.0
2018-Feb-12 07:29N 43°34' E 010°18'0 0.0
2018-Feb-12 06:59N 43°34' E 010°18'0 0.0
2018-Feb-12 06:29N 43°34' E 010°18'0 0.0
2018-Feb-12 05:59N 43°34' E 010°18'0 0.0
2018-Feb-12 05:20N 43°34' E 010°18'0 0.0
2018-Feb-12 04:59N 43°34' E 010°18'0 0.0
2018-Feb-12 04:29N 43°34' E 010°18'0 0.0
2018-Feb-12 03:59N 43°34' E 010°18'0 0.0
2018-Feb-12 03:29N 43°34' E 010°18'0 0.6
2018-Feb-12 03:00N 43°34' E 010°18'2 4.9
2018-Feb-12 02:31N 43°32' E 010°17'510.3
2018-Feb-12 02:01N 43°29' E 010°11'1019.1
2018-Feb-12 01:31N 43°22' E 010°02'713.8
2018-Feb-12 01:01N 43°17' E 009°56'611.6
2018-Feb-12 00:31N 43°13' E 009°50'713.6
2018-Feb-12 00:00N 43°08' E 009°43'813.4
2018-Feb-11 23:24N 43°00' E 009°40'2115.0
2018-Feb-11 22:01N 42°40' E 009°48'014.9
2018-Feb-11 22:00N 42°40' E 009°48'3619.6
2018-Feb-11 20:10N 42°10' E 010°15'421.1
2018-Feb-11 19:58N 42°08' E 010°20'  
Track history (hours):
 
Tides and Currents Weather Stations Pressure Air Temp Water Temp Dewpoint Dewpoint Depression Visibility Wind Speed Wind Dir Waves Ship Positions

Csl Virginia

Last reported at 2018-Feb-21 17:14 UTC. Time now 2018-Feb-22 13:16 UTC.
Position N 36°18' W 009°16'.

Length 294 m; draft 12.5 m.

Type: Cargo ship. MMSI: 212416000.

Date/timePositionNaut miles runAvg speedWind from/ knotsBaromVisibWave heightAir tempDewpointWater temp
2018-Feb-21 17:14N 36°18' W 009°16'17717.4
2018-Feb-21 07:02N 35°58' W 005°38'130.7
2018-Feb-21 06:59N 35°58' W 005°36'816.6
2018-Feb-21 06:30N 36°01' W 005°27'816.4
2018-Feb-21 06:00N 36°02' W 005°17'1019.6
2018-Feb-21 05:29N 36°04' W 005°05'1521.0
2018-Feb-21 04:46N 36°08' W 004°46'620.8
2018-Feb-21 04:28N 36°08' W 004°39'19119.5
2018-Feb-20 18:41N 37°18' W 000°57'420.2
2018-Feb-20 18:29N 37°21' W 000°53'1020.2
2018-Feb-20 18:00N 37°28' W 000°44'1019.9
2018-Feb-20 17:30N 37°35' W 000°35'1019.1
2018-Feb-20 17:00N 37°42' W 000°28'918.8
2018-Feb-20 16:30N 37°50' W 000°21'1019.3
2018-Feb-20 16:00N 37°57' W 000°13'8915.1
2018-Feb-20 10:06N 39°26' W 000°19'0 3.6
2018-Feb-20 10:01N 39°26' W 000°19'0 0.2
2018-Feb-20 08:45N 39°26' W 000°19'0 0.0
2018-Feb-20 08:21N 39°26' W 000°19'0 0.0
2018-Feb-20 07:45N 39°26' W 000°19'0 0.0
2018-Feb-20 07:27N 39°26' W 000°19'0 0.0
2018-Feb-20 06:57N 39°26' W 000°19'0 0.0
2018-Feb-20 06:30N 39°26' W 000°19'0 0.0
2018-Feb-20 05:51N 39°26' W 000°19'0 0.0
2018-Feb-20 05:27N 39°26' W 000°19'0 0.0
2018-Feb-20 04:57N 39°26' W 000°19'0 0.0
2018-Feb-20 04:30N 39°26' W 000°19'0 0.0
2018-Feb-20 03:39N 39°26' W 000°19'0 0.0
2018-Feb-20 03:30N 39°26' W 000°19'0 0.0
2018-Feb-20 02:57N 39°26' W 000°19'0 0.0
2018-Feb-20 02:30N 39°26' W 000°19'0 0.0
2018-Feb-20 01:57N 39°26' W 000°19'0 0.0
2018-Feb-20 01:27N 39°26' W 000°19'0 0.0
2018-Feb-20 01:00N 39°26' W 000°19'0 0.0
2018-Feb-20 00:27N 39°26' W 000°19'0 0.0
2018-Feb-19 23:57N 39°26' W 000°19'0 0.0
2018-Feb-19 22:54N 39°26' W 000°19'0 0.0
2018-Feb-19 22:30N 39°26' W 000°19'0 0.0
2018-Feb-19 21:57N 39°26' W 000°19'0 0.0
2018-Feb-19 21:15N 39°26' W 000°19'0 0.0
2018-Feb-19 20:57N 39°26' W 000°19'0 0.0
2018-Feb-19 20:21N 39°26' W 000°19'0 0.0
2018-Feb-19 19:48N 39°26' W 000°19'0 0.0
2018-Feb-19 19:09N 39°26' W 000°19'0 0.0
2018-Feb-19 18:39N 39°26' W 000°19'0 0.1
2018-Feb-19 18:27N 39°26' W 000°19'0 0.0
2018-Feb-19 18:00N 39°26' W 000°19'0 0.0
2018-Feb-19 17:30N 39°26' W 000°19'0 0.0
2018-Feb-19 16:57N 39°26' W 000°19'0 0.0
2018-Feb-19 16:27N 39°26' W 000°19'0 0.0
2018-Feb-19 16:00N 39°26' W 000°19'1 1.1
2018-Feb-19 15:30N 39°26' W 000°19'3 5.6
2018-Feb-19 15:00N 39°26' W 000°15'612.6
2018-Feb-19 14:30N 39°29' W 000°08'12320.5
2018-Feb-19 08:31N 40°55' E 001°48'219.6
2018-Feb-19 08:25N 40°56' E 001°49'819.8
2018-Feb-19 08:00N 41°03' E 001°56'1019.8
2018-Feb-19 07:30N 41°10' E 002°04'12 2.1
2018-Feb-19 01:51N 41°21' E 002°10'0 0.0
2018-Feb-19 01:30N 41°21' E 002°10'0 0.0
2018-Feb-19 01:00N 41°21' E 002°10'0 0.0
2018-Feb-19 00:30N 41°21' E 002°10'0 0.0
2018-Feb-19 00:00N 41°21' E 002°10'0 0.0
2018-Feb-18 23:30N 41°21' E 002°10'0 0.0
2018-Feb-18 23:00N 41°21' E 002°10'0 0.0
2018-Feb-18 22:30N 41°21' E 002°10'0 0.0
2018-Feb-18 22:00N 41°21' E 002°10'1 2.2
2018-Feb-18 21:30N 41°20' E 002°10'3 6.7
2018-Feb-18 21:00N 41°17' E 002°12'0 1.0
2018-Feb-18 20:30N 41°16' E 002°12'2 4.9
2018-Feb-18 20:00N 41°17' E 002°16'713.5
2018-Feb-18 19:31N 41°20' E 002°24'1120.7
2018-Feb-18 18:59N 41°25' E 002°36'13820.5
2018-Feb-18 12:15N 43°02' E 004°48'521.3
2018-Feb-18 12:00N 43°06' E 004°53'1019.7
2018-Feb-18 11:30N 43°15' E 004°60'715.1
2018-Feb-18 11:01N 43°22' E 004°58'611.1
2018-Feb-18 10:31N 43°25' E 004°51'0 0.2
2018-Feb-18 09:55N 43°25' E 004°51'0 0.0
2018-Feb-18 09:28N 43°25' E 004°51'0 0.0
2018-Feb-18 08:55N 43°25' E 004°51'0 0.0
2018-Feb-18 08:29N 43°25' E 004°51'0 0.0
2018-Feb-18 07:59N 43°25' E 004°51'0 0.0
2018-Feb-18 07:29N 43°25' E 004°51'0 0.0
2018-Feb-18 06:59N 43°25' E 004°51'0 0.0
2018-Feb-18 06:29N 43°25' E 004°51'0 0.0
2018-Feb-18 05:59N 43°25' E 004°51'0 0.0
2018-Feb-18 05:29N 43°25' E 004°51'0 0.0
2018-Feb-18 04:59N 43°25' E 004°51'0 0.0
2018-Feb-18 04:29N 43°25' E 004°51'0 0.0
2018-Feb-18 03:59N 43°25' E 004°51'0 0.0
2018-Feb-18 03:29N 43°25' E 004°51'0 0.0
2018-Feb-18 02:59N 43°25' E 004°51'0 0.0
2018-Feb-18 02:29N 43°25' E 004°51'0 0.0
2018-Feb-18 01:59N 43°25' E 004°51'0 0.0
2018-Feb-18 01:29N 43°25' E 004°51'0 0.0
2018-Feb-18 00:59N 43°25' E 004°51'0 0.0
2018-Feb-18 00:29N 43°25' E 004°51'0 0.0
2018-Feb-17 23:59N 43°25' E 004°51'0 0.0
2018-Feb-17 23:17N 43°25' E 004°51'0 0.0
2018-Feb-17 22:56N 43°25' E 004°51'0 0.0
2018-Feb-17 22:29N 43°25' E 004°51'0 0.0
2018-Feb-17 21:59N 43°25' E 004°51'0 0.0
2018-Feb-17 21:26N 43°25' E 004°51'0 0.0
2018-Feb-17 20:59N 43°25' E 004°51'0 0.0
2018-Feb-17 20:29N 43°25' E 004°51'0 0.0
2018-Feb-17 19:59N 43°25' E 004°51'0 0.0
2018-Feb-17 19:29N 43°25' E 004°51'0 0.0
2018-Feb-17 18:59N 43°25' E 004°51'0 0.0
2018-Feb-17 18:29N 43°25' E 004°51'0 0.0
2018-Feb-17 17:59N 43°25' E 004°51'0 0.0
2018-Feb-17 17:29N 43°25' E 004°51'0 0.0
2018-Feb-17 16:59N 43°25' E 004°51'0 0.0
2018-Feb-17 16:29N 43°25' E 004°51'0 0.0
2018-Feb-17 15:59N 43°25' E 004°51'0 0.0
2018-Feb-17 15:29N 43°25' E 004°51'0 0.5
2018-Feb-17 15:00N 43°25' E 004°51'4 7.1
2018-Feb-17 14:30N 43°24' E 004°56'5 9.2
2018-Feb-17 14:01N 43°20' E 004°59'612.7
2018-Feb-17 13:30N 43°14' E 005°02'815.2
2018-Feb-17 13:01N 43°08' E 004°54'1020.4
2018-Feb-17 12:31N 43°07' E 004°41'1 2.1
2018-Feb-17 11:59N 43°07' E 004°39'0 0.2
2018-Feb-17 11:30N 43°07' E 004°39'0 0.3
2018-Feb-17 10:42N 43°07' E 004°39'0 0.1
2018-Feb-17 10:21N 43°07' E 004°39'0 0.1
2018-Feb-17 10:00N 43°07' E 004°39'0 0.1
2018-Feb-17 09:27N 43°07' E 004°39'0 0.0
2018-Feb-17 09:00N 43°07' E 004°39'0 0.0
2018-Feb-17 08:30N 43°07' E 004°39'0 0.1
2018-Feb-17 08:00N 43°07' E 004°39'0 0.0
2018-Feb-17 07:30N 43°07' E 004°39'0 0.0
2018-Feb-17 07:00N 43°07' E 004°39'0 0.0
2018-Feb-17 06:30N 43°07' E 004°39'0 0.0
2018-Feb-17 06:00N 43°07' E 004°39'0 0.0
2018-Feb-17 05:30N 43°07' E 004°39'0 0.0
2018-Feb-17 05:00N 43°07' E 004°39'0 0.0
2018-Feb-17 04:30N 43°07' E 004°39'0 0.1
2018-Feb-17 04:00N 43°07' E 004°39'0 0.0
2018-Feb-17 03:30N 43°07' E 004°39'0 0.0
2018-Feb-17 03:00N 43°07' E 004°39'0 0.0
2018-Feb-17 02:30N 43°07' E 004°39'0 0.0
2018-Feb-17 02:00N 43°07' E 004°39'0 0.0
2018-Feb-17 01:30N 43°07' E 004°39'0 0.0
2018-Feb-17 01:00N 43°07' E 004°39'0 0.0
2018-Feb-17 00:30N 43°07' E 004°39'0 0.0
2018-Feb-17 00:00N 43°07' E 004°39'0 0.0
2018-Feb-16 23:30N 43°07' E 004°39'0 0.0
2018-Feb-16 23:00N 43°07' E 004°39'0 0.0
2018-Feb-16 22:30N 43°07' E 004°39'0 0.0
2018-Feb-16 22:00N 43°07' E 004°39'0 0.0
2018-Feb-16 21:30N 43°07' E 004°39'0 0.0
2018-Feb-16 21:00N 43°07' E 004°39'0 0.0
2018-Feb-16 20:30N 43°07' E 004°39'0 0.0
2018-Feb-16 20:00N 43°07' E 004°39'0 0.0
2018-Feb-16 19:30N 43°07' E 004°39'0 0.0
2018-Feb-16 19:00N 43°07' E 004°39'0 0.1
2018-Feb-16 18:30N 43°07' E 004°39'0 0.0
2018-Feb-16 18:00N 43°07' E 004°39'0 0.0
2018-Feb-16 17:30N 43°07' E 004°39'0 0.0
2018-Feb-16 17:00N 43°07' E 004°39'0 0.0
2018-Feb-16 16:21N 43°07' E 004°39'0 0.0
2018-Feb-16 16:00N 43°07' E 004°39'0 0.0
2018-Feb-16 15:30N 43°07' E 004°39'0 0.0
2018-Feb-16 15:00N 43°07' E 004°39'0 0.1
2018-Feb-16 14:30N 43°07' E 004°39'0 0.0
2018-Feb-16 14:00N 43°07' E 004°39'0 0.0
2018-Feb-16 13:30N 43°07' E 004°39'0 0.0
2018-Feb-16 13:00N 43°07' E 004°39'0 0.0
2018-Feb-16 12:30N 43°07' E 004°39'0 0.2
2018-Feb-16 11:48N 43°07' E 004°39'0 0.5
2018-Feb-16 11:30N 43°07' E 004°39'2 4.4
2018-Feb-16 11:00N 43°06' E 004°42'612.3
2018-Feb-16 10:30N 43°04' E 004°50'9710.7
2018-Feb-16 01:26N 43°06' E 007°03'511.4
2018-Feb-16 01:01N 43°08' E 007°08'610.8
2018-Feb-16 00:29N 43°12' E 007°15'510.3
2018-Feb-16 00:00N 43°15' E 007°20'510.6
2018-Feb-15 23:31N 43°18' E 007°26'610.9
2018-Feb-15 22:55N 43°22' E 007°32'611.2
2018-Feb-15 22:24N 43°26' E 007°38'511.7
2018-Feb-15 21:58N 43°29' E 007°43'3411.5
2018-Feb-15 19:03N 43°50' E 008°20'211.3
2018-Feb-15 18:55N 43°52' E 008°21'511.2
2018-Feb-15 18:30N 43°55' E 008°25'511.0
2018-Feb-15 18:01N 43°60' E 008°29'510.9
2018-Feb-15 17:31N 44°04' E 008°33'611.2
2018-Feb-15 17:00N 44°09' E 008°37'511.1
2018-Feb-15 16:30N 44°14' E 008°39'611.7
2018-Feb-15 16:00N 44°20' E 008°41'612.5
2018-Feb-15 15:30N 44°25' E 008°46'1 1.2
2018-Feb-15 14:59N 44°25' E 008°47'0 0.0
2018-Feb-15 14:29N 44°25' E 008°47'0 0.0
2018-Feb-15 13:59N 44°25' E 008°47'0 0.0
2018-Feb-15 13:29N 44°25' E 008°47'0 0.0
2018-Feb-15 12:59N 44°25' E 008°47'0 0.0
2018-Feb-15 12:26N 44°25' E 008°47'0 0.0
2018-Feb-15 11:59N 44°25' E 008°47'0 0.0
2018-Feb-15 11:26N 44°25' E 008°47'0 0.0
2018-Feb-15 10:59N 44°25' E 008°47'0 0.0
2018-Feb-15 10:29N 44°25' E 008°47'0 0.0
2018-Feb-15 09:59N 44°25' E 008°47'0 0.0
2018-Feb-15 09:29N 44°25' E 008°47'0 0.0
2018-Feb-15 08:56N 44°25' E 008°47'0 0.0
2018-Feb-15 08:29N 44°25' E 008°47'0 0.0
2018-Feb-15 07:59N 44°25' E 008°47'0 0.0
2018-Feb-15 07:29N 44°25' E 008°47'0 0.0
2018-Feb-15 06:59N 44°25' E 008°47'0 0.0
2018-Feb-15 06:29N 44°25' E 008°47'0 0.0
2018-Feb-15 05:59N 44°25' E 008°47'0 0.0
2018-Feb-15 05:26N 44°25' E 008°47'0 0.0
2018-Feb-15 04:59N 44°25' E 008°47'0 0.0
2018-Feb-15 04:29N 44°25' E 008°47'0 0.0
2018-Feb-15 03:59N 44°25' E 008°47'0 0.0
2018-Feb-15 03:29N 44°25' E 008°47'0 0.0
2018-Feb-15 02:59N 44°25' E 008°47'0 0.0
2018-Feb-15 02:29N 44°25' E 008°47'0 0.0
2018-Feb-15 01:59N 44°25' E 008°47'0 0.0
2018-Feb-15 01:29N 44°25' E 008°47'0 0.0
2018-Feb-15 00:59N 44°25' E 008°47'0 0.0
2018-Feb-15 00:29N 44°25' E 008°47'0 0.0
2018-Feb-14 23:59N 44°25' E 008°47'0 0.0
2018-Feb-14 23:29N 44°25' E 008°47'0 0.0
2018-Feb-14 22:59N 44°25' E 008°47'0 0.0
2018-Feb-14 22:29N 44°25' E 008°47'0 0.0
2018-Feb-14 21:59N 44°25' E 008°47'0 0.0
2018-Feb-14 21:29N 44°25' E 008°47'0 0.0
2018-Feb-14 20:56N 44°25' E 008°47'0 0.0
2018-Feb-14 20:29N 44°25' E 008°47'0 0.0
2018-Feb-14 19:59N 44°25' E 008°47'0 0.0
2018-Feb-14 19:29N 44°25' E 008°47'0 0.0
2018-Feb-14 18:56N 44°25' E 008°47'0 0.0
2018-Feb-14 18:29N 44°25' E 008°47'0 0.0
2018-Feb-14 17:59N 44°25' E 008°47'0 0.0
2018-Feb-14 17:29N 44°25' E 008°47'0 0.0
2018-Feb-14 16:59N 44°25' E 008°47'1 1.3
2018-Feb-14 16:30N 44°25' E 008°46'3 5.3
2018-Feb-14 16:00N 44°23' E 008°44'1 2.7
2018-Feb-14 15:30N 44°24' E 008°46'0 0.3
2018-Feb-14 15:00N 44°23' E 008°46'0 0.0
2018-Feb-14 14:30N 44°23' E 008°46'0 0.0
2018-Feb-14 14:00N 44°23' E 008°46'0 0.0
2018-Feb-14 13:30N 44°23' E 008°46'0 0.1
2018-Feb-14 13:00N 44°23' E 008°46'0 0.0
2018-Feb-14 12:30N 44°23' E 008°46'0 0.0
2018-Feb-14 12:00N 44°23' E 008°46'0 0.1
2018-Feb-14 11:30N 44°23' E 008°46'0 0.1
2018-Feb-14 11:00N 44°23' E 008°46'0 0.0
2018-Feb-14 10:30N 44°23' E 008°46'0 0.1
2018-Feb-14 10:00N 44°23' E 008°46'0 0.1
2018-Feb-14 09:30N 44°23' E 008°46'0 0.1
2018-Feb-14 09:00N 44°23' E 008°46'0 0.0
2018-Feb-14 08:30N 44°23' E 008°46'0 0.1
2018-Feb-14 08:00N 44°23' E 008°46'0 0.0
2018-Feb-14 07:27N 44°23' E 008°46'0 0.1
2018-Feb-14 07:00N 44°23' E 008°46'0 0.0
2018-Feb-14 06:30N 44°23' E 008°46'0 0.0
2018-Feb-14 06:00N 44°23' E 008°46'0 0.1
2018-Feb-14 05:24N 44°23' E 008°46'0 0.0
2018-Feb-14 04:51N 44°23' E 008°46'0 0.0
2018-Feb-14 04:30N 44°23' E 008°46'0 0.0
2018-Feb-14 03:57N 44°23' E 008°46'0 0.1
2018-Feb-14 03:30N 44°23' E 008°46'0 0.0
2018-Feb-14 03:00N 44°23' E 008°46'0 0.0
2018-Feb-14 02:30N 44°23' E 008°46'0 0.0
2018-Feb-14 02:00N 44°23' E 008°46'0 0.0
2018-Feb-14 01:30N 44°23' E 008°46'0 0.0
2018-Feb-14 01:00N 44°23' E 008°46'0 0.0
2018-Feb-14 00:30N 44°23' E 008°46'0 0.3
2018-Feb-14 00:00N 44°24' E 008°46'0 0.5
2018-Feb-13 23:30N 44°24' E 008°46'0 0.1
2018-Feb-13 23:00N 44°24' E 008°46'0 0.2
2018-Feb-13 22:30N 44°24' E 008°46'0 0.2
2018-Feb-13 22:00N 44°24' E 008°46'0 0.3
2018-Feb-13 21:30N 44°24' E 008°46'0 0.2
2018-Feb-13 21:00N 44°24' E 008°46'0 0.0
2018-Feb-13 20:30N 44°24' E 008°46'0 0.1
2018-Feb-13 20:00N 44°24' E 008°46'0 0.3
2018-Feb-13 19:30N 44°24' E 008°46'0 0.1
2018-Feb-13 19:00N 44°24' E 008°46'0 0.8
2018-Feb-13 18:30N 44°23' E 008°46'0 0.0
2018-Feb-13 18:00N 44°23' E 008°46'0 0.1
2018-Feb-13 17:30N 44°23' E 008°46'0 0.1
2018-Feb-13 17:00N 44°23' E 008°46'0 0.0
2018-Feb-13 16:27N 44°23' E 008°46'0 0.0
2018-Feb-13 16:00N 44°23' E 008°46'0 0.1
2018-Feb-13 15:30N 44°23' E 008°46'0 0.0
2018-Feb-13 15:00N 44°23' E 008°46'0 0.1
2018-Feb-13 14:30N 44°23' E 008°46'0 0.1
2018-Feb-13 14:00N 44°23' E 008°46'0 0.1
2018-Feb-13 13:30N 44°23' E 008°46'0 0.0
2018-Feb-13 12:57N 44°23' E 008°46'0 0.0
2018-Feb-13 12:30N 44°23' E 008°46'0 0.0
2018-Feb-13 12:00N 44°23' E 008°46'0 0.0
2018-Feb-13 11:30N 44°23' E 008°46'0 0.0
2018-Feb-13 10:57N 44°23' E 008°46'0 0.0
2018-Feb-13 10:30N 44°23' E 008°46'0 0.0
2018-Feb-13 10:00N 44°23' E 008°46'0 0.0
2018-Feb-13 09:30N 44°23' E 008°46'0 0.0
2018-Feb-13 09:00N 44°23' E 008°46'0 0.0
2018-Feb-13 08:30N 44°23' E 008°46'0 0.0
2018-Feb-13 08:00N 44°23' E 008°46'0 0.1
2018-Feb-13 07:30N 44°23' E 008°46'0 0.1
2018-Feb-13 07:00N 44°23' E 008°46'0 0.0
2018-Feb-13 06:30N 44°23' E 008°46'0 0.1
2018-Feb-13 06:00N 44°23' E 008°46'0 0.0
2018-Feb-13 05:30N 44°23' E 008°46'0 0.1
2018-Feb-13 05:00N 44°23' E 008°46'0 0.0
2018-Feb-13 04:30N 44°23' E 008°46'0 0.1
2018-Feb-13 04:00N 44°23' E 008°46'0 0.1
2018-Feb-13 03:30N 44°23' E 008°46'0 0.0
2018-Feb-13 03:00N 44°23' E 008°46'0 0.1
2018-Feb-13 02:28N 44°23' E 008°46'0 1.0
2018-Feb-13 02:00N 44°23' E 008°46'4 7.6
2018-Feb-13 01:30N 44°19' E 008°45'3 6.5
2018-Feb-13 01:00N 44°17' E 008°48'815.9
2018-Feb-13 00:30N 44°11' E 008°55'816.3
2018-Feb-13 00:01N 44°05' E 009°02'816.8
2018-Feb-12 23:31N 43°58' E 009°10'816.8
2018-Feb-12 23:01N 43°53' E 009°19'816.5
2018-Feb-12 22:31N 43°48' E 009°28'816.1
2018-Feb-12 22:00N 43°43' E 009°36'816.0
2018-Feb-12 21:30N 43°38' E 009°45'815.6
2018-Feb-12 21:01N 43°33' E 009°54'816.9
2018-Feb-12 20:31N 43°30' E 010°05'817.0
2018-Feb-12 20:01N 43°32' E 010°16'3 5.4
2018-Feb-12 19:30N 43°34' E 010°18'0 0.7
2018-Feb-12 18:59N 43°34' E 010°18'0 0.0
2018-Feb-12 18:29N 43°34' E 010°18'0 0.0
2018-Feb-12 17:59N 43°34' E 010°18'0 0.0
2018-Feb-12 17:29N 43°34' E 010°18'0 0.0
2018-Feb-12 16:59N 43°34' E 010°18'0 0.0
2018-Feb-12 16:29N 43°34' E 010°18'0 0.0
2018-Feb-12 15:59N 43°34' E 010°18'0 0.0
2018-Feb-12 15:17N 43°34' E 010°18'0 0.0
2018-Feb-12 14:59N 43°34' E 010°18'0 0.0
2018-Feb-12 14:29N 43°34' E 010°18'0 0.0
2018-Feb-12 13:59N 43°34' E 010°18'0 0.0
2018-Feb-12 13:23N 43°34' E 010°18'0 0.0
2018-Feb-12 12:59N 43°34' E 010°18'0 0.0
2018-Feb-12 12:23N 43°34' E 010°18'0 0.0
2018-Feb-12 11:59N 43°34' E 010°18'0 0.0
2018-Feb-12 11:26N 43°34' E 010°18'0 0.0
2018-Feb-12 10:56N 43°34' E 010°18'0 0.0
2018-Feb-12 10:29N 43°34' E 010°18'0 0.0
2018-Feb-12 09:59N 43°34' E 010°18'0 0.0
2018-Feb-12 09:29N 43°34' E 010°18'0 0.0
2018-Feb-12 08:59N 43°34' E 010°18'0 0.0
2018-Feb-12 08:26N 43°34' E 010°18'0 0.0
2018-Feb-12 07:59N 43°34' E 010°18'0 0.0
2018-Feb-12 07:29N 43°34' E 010°18'0 0.0
2018-Feb-12 06:59N 43°34' E 010°18'0 0.0
2018-Feb-12 06:29N 43°34' E 010°18'0 0.0
2018-Feb-12 05:59N 43°34' E 010°18'0 0.0
2018-Feb-12 05:20N 43°34' E 010°18'0 0.0
2018-Feb-12 04:59N 43°34' E 010°18'0 0.0
2018-Feb-12 04:29N 43°34' E 010°18'0 0.0
2018-Feb-12 03:59N 43°34' E 010°18'0 0.0
2018-Feb-12 03:29N 43°34' E 010°18'0 0.6
2018-Feb-12 03:00N 43°34' E 010°18'2 4.9
2018-Feb-12 02:31N 43°32' E 010°17'510.3
2018-Feb-12 02:01N 43°29' E 010°11'1019.1
2018-Feb-12 01:31N 43°22' E 010°02'713.8
2018-Feb-12 01:01N 43°17' E 009°56'611.6
2018-Feb-12 00:31N 43°13' E 009°50'713.6
2018-Feb-12 00:00N 43°08' E 009°43'813.4
2018-Feb-11 23:24N 43°00' E 009°40'2115.0
2018-Feb-11 22:01N 42°40' E 009°48'014.9
2018-Feb-11 22:00N 42°40' E 009°48'3619.6
2018-Feb-11 20:10N 42°10' E 010°15'421.1
2018-Feb-11 19:58N 42°08' E 010°20'  

Dump ship's entire track history